Time;durP1;ratioP1;P1;durP2;ratioP2;P2;SDS_P1;SDS_P2;PMS_P1;PMS_P2;Temp;Humidity;BMP_temperature;BMP_pressure;BME280_temperature;BME280_humidity;BME280_pressure;Samples;Min_cycle;Max_cycle;Signal;HPM_P1;HPM_P2
2022/04/25 00:00:00;;;;;;;5.00;4.60;;;11.80;99.90;;;;;;5028244;28;20429;-42
2022/04/25 00:02:26;;;;;;;5.20;4.73;;;11.40;99.90;;;;;;5028865;28;20221;-42
2022/04/25 00:04:52;;;;;;;5.27;4.87;;;11.20;99.90;;;;;;5027899;28;20432;-42
2022/04/25 00:07:18;;;;;;;5.60;5.10;;;11.10;99.90;;;;;;5028691;28;20469;-42
2022/04/25 00:09:44;;;;;;;5.50;4.90;;;11.20;99.90;;;;;;5017913;28;20477;-42
2022/04/25 00:12:10;;;;;;;5.53;4.87;;;11.10;99.90;;;;;;5026812;28;20179;-42
2022/04/25 00:14:36;;;;;;;7.10;4.70;;;11.10;99.90;;;;;;5028541;28;20926;-42
2022/04/25 00:17:02;;;;;;;5.07;4.60;;;11.10;99.90;;;;;;5028765;28;20523;-42
2022/04/25 00:19:27;;;;;;;5.10;4.70;;;11.00;99.90;;;;;;5028527;28;20186;-42
2022/04/25 00:21:53;;;;;;;5.23;4.73;;;11.10;99.90;;;;;;5028280;28;20582;-42
2022/04/25 00:24:19;;;;;;;6.20;4.90;;;11.00;99.90;;;;;;5024692;28;20337;-43
2022/04/25 00:26:45;;;;;;;5.40;4.67;;;11.00;99.90;;;;;;5023606;28;20202;-42
2022/04/25 00:29:12;;;;;;;5.40;4.90;;;11.00;99.90;;;;;;5026993;28;20846;-42
2022/04/25 00:31:38;;;;;;;5.17;4.67;;;10.90;99.90;;;;;;5027963;28;20220;-42
2022/04/25 00:34:03;;;;;;;4.33;3.93;;;10.70;99.90;;;;;;5028475;28;20477;-42
2022/04/25 00:36:29;;;;;;;4.07;3.67;;;10.60;99.90;;;;;;5028442;28;20425;-42
2022/04/25 00:38:55;;;;;;;5.30;4.17;;;10.60;99.90;;;;;;5025912;28;20555;-42
2022/04/25 00:41:20;;;;;;;4.90;4.50;;;10.60;99.90;;;;;;5028746;28;20233;-42
2022/04/25 00:43:46;;;;;;;5.10;4.60;;;10.50;99.90;;;;;;5027285;28;20182;-42
2022/04/25 00:46:22;;;;;;;7.10;4.50;;;10.50;99.90;;;;;;5032003;28;20240;-42
2022/04/25 00:48:48;;;;;;;4.63;4.23;;;10.50;99.90;;;;;;5032107;28;20225;-42
2022/04/25 00:51:15;;;;;;;5.00;3.90;;;10.40;99.90;;;;;;5031247;28;20425;-42
2022/04/25 00:53:42;;;;;;;5.07;4.47;;;10.30;99.90;;;;;;5029251;28;20421;-42
2022/04/25 00:56:08;;;;;;;6.43;4.53;;;10.20;99.90;;;;;;5023710;28;20425;-43
2022/04/25 00:58:35;;;;;;;4.43;4.03;;;10.00;99.90;;;;;;5031744;28;20893;-42
2022/04/25 01:01:01;;;;;;;4.90;4.50;;;10.00;99.90;;;;;;5031041;28;20453;-42
2022/04/25 01:03:27;;;;;;;4.63;4.20;;;10.00;99.90;;;;;;5031430;28;20488;-42
2022/04/25 01:05:53;;;;;;;4.97;4.37;;;10.00;99.90;;;;;;5030582;28;20650;-43
2022/04/25 01:08:19;;;;;;;7.37;5.30;;;10.00;99.90;;;;;;5031564;28;20788;-41
2022/04/25 01:10:45;;;;;;;5.63;5.13;;;10.00;99.90;;;;;;5020851;28;20441;-42
2022/04/25 01:13:12;;;;;;;5.70;5.10;;;9.90;99.90;;;;;;5031384;28;20179;-42
2022/04/25 01:15:37;;;;;;;5.30;4.80;;;10.10;99.90;;;;;;5031472;28;20775;-42
2022/04/25 01:18:03;;;;;;;5.67;4.80;;;9.80;99.90;;;;;;5031631;28;20421;-42
2022/04/25 01:20:29;;;;;;;5.93;4.90;;;9.80;99.90;;;;;;5030815;28;20187;-42
2022/04/25 01:28:38;;;;;;;5.03;4.53;;;9.90;99.90;;;;;;5026384;28;20478;-42
2022/04/25 01:31:03;;;;;;;5.60;5.10;;;9.80;99.90;;;;;;5030371;28;20421;-42
2022/04/25 01:33:29;;;;;;;5.40;4.90;;;9.80;99.90;;;;;;5030844;28;20429;-42
2022/04/25 01:35:55;;;;;;;5.57;4.97;;;9.90;99.90;;;;;;5031155;28;20194;-42
2022/04/25 01:38:21;;;;;;;4.57;4.17;;;9.90;99.90;;;;;;5030851;28;20261;-42
2022/04/25 01:40:47;;;;;;;4.70;4.30;;;10.10;99.90;;;;;;5021447;28;20437;-42
2022/04/25 01:43:13;;;;;;;5.73;4.37;;;10.10;99.90;;;;;;5030736;28;20440;-42
2022/04/25 01:45:41;;;;;;;5.30;4.43;;;10.10;99.90;;;;;;5030732;28;20194;-42
2022/04/25 01:48:07;;;;;;;4.77;4.37;;;10.00;99.90;;;;;;5030877;28;20531;-42
2022/04/25 01:50:33;;;;;;;5.43;4.93;;;9.90;99.90;;;;;;5029438;28;20436;-42
2022/04/25 01:52:59;;;;;;;6.33;4.90;;;9.90;99.90;;;;;;5030737;28;20436;-42
2022/04/25 01:55:24;;;;;;;5.53;3.87;;;10.10;99.90;;;;;;5024151;28;20177;-42
2022/04/25 01:57:50;;;;;;;5.07;4.57;;;10.30;99.90;;;;;;5029261;28;20202;-42
2022/04/25 02:00:16;;;;;;;4.77;4.37;;;10.00;99.90;;;;;;5029874;28;20562;-42
2022/04/25 02:02:41;;;;;;;8.57;5.37;;;10.10;99.90;;;;;;5029321;28;20200;-42
2022/04/25 02:05:08;;;;;;;5.40;4.63;;;9.80;99.90;;;;;;5029724;28;20435;-42
2022/04/25 02:07:33;;;;;;;8.90;4.50;;;9.70;99.90;;;;;;5030486;28;20352;-42
2022/04/25 02:09:59;;;;;;;6.83;4.47;;;10.00;99.90;;;;;;5019847;28;20544;-41
2022/04/25 02:12:25;;;;;;;5.67;4.80;;;10.00;99.90;;;;;;5024359;28;20189;-41
2022/04/25 02:14:50;;;;;;;5.30;4.80;;;9.90;99.90;;;;;;5029924;28;20178;-42
2022/04/25 02:17:16;;;;;;;4.70;4.20;;;10.20;99.90;;;;;;5030405;28;20674;-42
2022/04/25 02:19:44;;;;;;;5.17;4.67;;;10.10;99.90;;;;;;5029518;28;20256;-42
2022/04/25 02:22:11;;;;;;;6.20;5.33;;;10.00;99.90;;;;;;5028788;28;20192;-42
2022/04/25 02:24:40;;;;;;;4.97;4.40;;;9.90;99.90;;;;;;5028247;28;20446;-42
2022/04/25 02:27:07;;;;;;;4.17;3.83;;;9.70;99.90;;;;;;5027089;28;20456;-42
2022/04/25 02:29:35;;;;;;;4.37;3.97;;;9.80;99.90;;;;;;5028209;28;20422;-42
2022/04/25 02:32:02;;;;;;;4.90;3.57;;;9.50;99.90;;;;;;5029992;28;20490;-42
2022/04/25 02:34:29;;;;;;;4.50;4.10;;;9.40;99.90;;;;;;5030097;28;20441;-42
2022/04/25 02:36:55;;;;;;;4.27;3.60;;;9.40;99.90;;;;;;5029850;28;20432;-42
2022/04/25 02:39:22;;;;;;;5.17;4.37;;;9.40;99.90;;;;;;5027174;28;20479;-42
2022/04/25 02:41:49;;;;;;;4.57;4.17;;;9.40;99.90;;;;;;5019334;28;20906;-41
2022/04/25 02:44:14;;;;;;;5.80;4.73;;;9.10;99.90;;;;;;5028324;28;20486;-42
2022/04/25 02:46:40;;;;;;;4.67;4.23;;;9.00;99.90;;;;;;5029631;28;20473;-42
2022/04/25 02:49:06;;;;;;;5.30;4.80;;;9.10;99.90;;;;;;5029787;28;20186;-42
2022/04/25 02:51:31;;;;;;;4.53;4.10;;;9.20;99.90;;;;;;5029028;28;20193;-42
2022/04/25 02:53:57;;;;;;;5.10;4.60;;;9.40;99.90;;;;;;5029982;28;20248;-42
2022/04/25 02:56:22;;;;;;;5.00;4.50;;;9.50;99.90;;;;;;5016331;28;20282;-43
2022/04/25 02:58:48;;;;;;;5.10;4.60;;;9.70;99.90;;;;;;5029303;28;20194;-42
2022/04/25 03:01:14;;;;;;;5.27;4.77;;;9.60;99.90;;;;;;5027705;28;20635;-43
2022/04/25 03:03:39;;;;;;;5.40;4.90;;;9.70;99.90;;;;;;5029465;28;20213;-42
2022/04/25 03:06:07;;;;;;;6.67;4.77;;;9.70;99.90;;;;;;5027317;28;20256;-42
2022/04/25 03:08:36;;;;;;;4.87;4.43;;;9.70;99.90;;;;;;5029382;28;20722;-42
2022/04/25 03:11:08;;;;;;;5.30;4.80;;;9.80;99.90;;;;;;5019930;28;20447;-43
2022/04/25 03:13:34;;;;;;;5.87;5.30;;;9.80;99.90;;;;;;5029252;28;20487;-42
2022/04/25 03:16:01;;;;;;;6.03;4.97;;;9.70;99.90;;;;;;5029421;28;20927;-42
2022/04/25 03:18:29;;;;;;;5.50;5.00;;;9.70;99.90;;;;;;5029156;28;20516;-42
2022/04/25 03:20:55;;;;;;;5.60;5.10;;;9.60;99.90;;;;;;5028560;28;20425;-42
2022/04/25 03:23:22;;;;;;;5.90;5.30;;;9.60;99.90;;;;;;5029111;28;20528;-42
2022/04/25 03:25:49;;;;;;;6.10;5.47;;;9.60;99.90;;;;;;5025950;28;20449;-42
2022/04/25 03:28:16;;;;;;;12.93;5.93;;;9.70;99.90;;;;;;5028009;28;20433;-43
2022/04/25 03:30:42;;;;;;;5.80;5.30;;;9.60;99.90;;;;;;5028237;28;20437;-42
2022/04/25 03:33:11;;;;;;;6.10;5.50;;;9.50;99.90;;;;;;5029336;28;20425;-42
2022/04/25 03:35:40;;;;;;;5.90;5.30;;;9.40;99.90;;;;;;5028926;28;20486;-42
2022/04/25 03:38:06;;;;;;;6.93;6.23;;;9.30;99.90;;;;;;5029157;28;20421;-42
2022/04/25 03:40:34;;;;;;;7.20;6.03;;;9.30;99.90;;;;;;5019000;28;20425;-42
2022/04/25 03:42:59;;;;;;;6.80;6.10;;;9.30;99.90;;;;;;5022826;28;20920;-42
2022/04/25 03:45:25;;;;;;;8.07;7.20;;;9.30;99.90;;;;;;5028982;28;20432;-42
2022/04/25 03:47:51;;;;;;;8.00;7.20;;;9.40;99.90;;;;;;5029041;28;20229;-42
2022/04/25 03:50:16;;;;;;;7.40;6.70;;;9.40;99.90;;;;;;5026937;28;20186;-42
2022/04/25 03:52:44;;;;;;;8.17;7.00;;;9.40;99.90;;;;;;5029029;28;20273;-42
2022/04/25 03:58:00;;;;;;;7.93;7.13;;;9.40;99.90;;;;;;5025692;28;20447;-42
2022/04/25 04:00:27;;;;;;;8.07;7.27;;;9.30;99.90;;;;;;5028389;28;20421;-42
2022/04/25 04:02:53;;;;;;;8.90;8.00;;;9.20;99.90;;;;;;5029050;28;20559;-42
2022/04/25 04:05:20;;;;;;;10.20;9.00;;;9.20;99.90;;;;;;5027894;28;20433;-42
2022/04/25 04:07:49;;;;;;;10.13;8.90;;;9.20;99.90;;;;;;5028644;28;20468;-42
2022/04/25 04:10:15;;;;;;;9.40;8.37;;;9.20;99.90;;;;;;5025347;28;20529;-42
2022/04/25 04:12:40;;;;;;;9.70;7.50;;;9.30;99.90;;;;;;5024985;28;20417;-42
2022/04/25 04:15:07;;;;;;;10.37;9.27;;;9.30;99.90;;;;;;5032500;28;20436;-42
2022/04/25 04:17:33;;;;;;;9.50;8.13;;;9.20;99.90;;;;;;5032509;28;20593;-43
2022/04/25 04:20:00;;;;;;;10.07;7.43;;;9.20;99.90;;;;;;5031608;28;20523;-42
2022/04/25 04:22:29;;;;;;;9.10;7.37;;;9.20;99.90;;;;;;5032586;28;20429;-42
2022/04/25 04:25:05;;;;;;;7.97;7.20;;;9.30;99.90;;;;;;5040638;28;20420;-42
2022/04/25 04:27:31;;;;;;;6.43;5.77;;;9.30;99.90;;;;;;5026232;28;21006;-43
2022/04/25 04:30:01;;;;;;;7.93;7.13;;;9.30;99.90;;;;;;5031790;28;20424;-42
2022/04/25 04:32:31;;;;;;;6.77;6.07;;;9.30;99.90;;;;;;5019474;28;20452;-42
2022/04/25 04:34:58;;;;;;;7.33;6.50;;;9.30;99.90;;;;;;5032239;28;20429;-42
2022/04/25 04:37:25;;;;;;;7.40;6.60;;;9.40;99.90;;;;;;5032413;28;20443;-42
2022/04/25 04:39:51;;;;;;;7.60;6.13;;;9.30;99.90;;;;;;5031206;28;20425;-43
2022/04/25 04:42:17;;;;;;;7.53;6.73;;;9.40;99.90;;;;;;5027216;28;21835;-42
2022/04/25 04:44:43;;;;;;;9.17;6.30;;;9.40;99.90;;;;;;5031800;28;20491;-42
2022/04/25 04:47:09;;;;;;;7.03;5.93;;;9.30;99.90;;;;;;5027966;28;20365;-42
2022/04/25 04:49:35;;;;;;;8.10;6.83;;;9.50;99.90;;;;;;5031149;28;20905;-43
2022/04/25 04:52:00;;;;;;;7.40;6.60;;;9.60;99.90;;;;;;5031785;28;20329;-42
2022/04/25 04:54:26;;;;;;;7.97;7.00;;;9.50;99.90;;;;;;5045268;28;20550;-42
2022/04/25 04:56:52;;;;;;;7.57;6.60;;;9.50;99.90;;;;;;5020866;28;20203;-43
2022/04/25 04:59:17;;;;;;;9.20;6.70;;;9.50;99.90;;;;;;5029561;28;20195;-42
2022/04/25 05:01:43;;;;;;;7.90;6.93;;;9.50;99.90;;;;;;5029658;28;20217;-43
2022/04/25 05:04:10;;;;;;;8.17;7.37;;;9.50;99.90;;;;;;5031125;28;20191;-42
2022/04/25 05:06:35;;;;;;;7.83;7.03;;;9.40;99.90;;;;;;5031713;28;20556;-42
2022/04/25 05:09:01;;;;;;;7.60;6.90;;;9.60;99.90;;;;;;5031673;28;20532;-42
2022/04/25 05:11:29;;;;;;;8.10;6.43;;;9.40;99.90;;;;;;5018785;28;20642;-43
2022/04/25 05:13:55;;;;;;;7.03;6.33;;;9.50;99.90;;;;;;5027654;28;20860;-43
2022/04/25 05:16:20;;;;;;;8.47;7.20;;;9.60;99.90;;;;;;5031263;28;20544;-42
2022/04/25 05:18:46;;;;;;;7.83;7.03;;;9.50;99.90;;;;;;5011828;28;20430;-42
2022/04/25 05:21:15;;;;;;;9.13;8.27;;;9.60;99.90;;;;;;5030737;28;20194;-42
2022/04/25 05:23:42;;;;;;;11.37;10.20;;;9.90;99.90;;;;;;5032309;28;20178;-42
2022/04/25 05:26:08;;;;;;;11.07;9.77;;;9.70;99.90;;;;;;5033344;28;20475;-43
2022/04/25 05:28:34;;;;;;;12.77;10.80;;;9.80;99.90;;;;;;5028147;28;20539;-42
2022/04/25 05:31:00;;;;;;;13.90;12.50;;;9.80;99.90;;;;;;5026092;28;20457;-42
2022/04/25 05:33:25;;;;;;;14.23;11.70;;;10.00;99.90;;;;;;5032245;28;20256;-43
2022/04/25 05:35:52;;;;;;;13.63;12.03;;;9.70;99.90;;;;;;5031030;28;20274;-42
2022/04/25 05:38:18;;;;;;;15.20;13.60;;;9.50;99.90;;;;;;5031236;28;20210;-43
2022/04/25 05:40:44;;;;;;;15.13;12.77;;;9.60;99.90;;;;;;5026153;28;20438;-42
2022/04/25 05:43:11;;;;;;;14.90;13.23;;;9.60;99.90;;;;;;5027512;28;20425;-42
2022/04/25 05:45:37;;;;;;;16.07;14.37;;;9.70;99.90;;;;;;5030936;28;20950;-43
2022/04/25 05:51:58;;;;;;;21.10;16.17;;;9.70;99.90;;;;;;5030673;28;20473;-42
2022/04/25 05:53:35;;;;;;;19.23;15.93;;;9.80;99.90;;;;;;5037133;28;20420;-42
2022/04/25 05:56:01;;;;;;;17.80;15.60;;;10.00;99.90;;;;;;5032035;28;20549;-42
2022/04/25 05:58:27;;;;;;;23.37;17.30;;;9.80;99.90;;;;;;5027152;28;20473;-43
2022/04/25 06:00:52;;;;;;;20.00;16.00;;;9.60;99.90;;;;;;5030068;28;20193;-43
2022/04/25 06:03:18;;;;;;;21.00;17.70;;;9.70;99.90;;;;;;5030283;28;20198;-42
2022/04/25 06:05:45;;;;;;;18.13;16.07;;;9.60;99.90;;;;;;5020988;28;20201;-43
2022/04/25 06:08:11;;;;;;;18.50;15.50;;;9.70;99.90;;;;;;5028915;28;20210;-42
2022/04/25 06:10:36;;;;;;;17.87;15.23;;;9.80;99.90;;;;;;5029127;28;20943;-43
2022/04/25 06:13:02;;;;;;;16.60;14.80;;;10.00;99.90;;;;;;5021592;28;20429;-43
2022/04/25 06:15:29;;;;;;;16.20;14.50;;;10.20;99.90;;;;;;5026550;28;20191;-43
2022/04/25 06:17:55;;;;;;;14.60;12.80;;;9.90;99.90;;;;;;5035131;28;20182;-43
2022/04/25 06:20:21;;;;;;;12.47;11.27;;;10.00;99.90;;;;;;5028968;28;20437;-43
2022/04/25 06:22:59;;;;;;;12.57;11.23;;;9.90;99.90;;;;;;5029914;28;20429;-43
2022/04/25 06:25:26;;;;;;;16.83;13.07;;;9.90;99.90;;;;;;5045211;28;20434;-43
2022/04/25 06:27:52;;;;;;;13.87;12.50;;;10.10;99.90;;;;;;5022941;28;20570;-42
2022/04/25 06:30:23;;;;;;;12.03;10.83;;;9.90;99.90;;;;;;5029306;28;20579;-42
2022/04/25 06:32:49;;;;;;;12.40;11.10;;;9.90;99.90;;;;;;5030231;28;20425;-42
2022/04/25 06:35:15;;;;;;;12.83;10.17;;;9.80;99.90;;;;;;5029223;28;20436;-43
2022/04/25 06:37:41;;;;;;;12.97;11.70;;;9.90;99.90;;;;;;5029923;28;20433;-42
2022/04/25 06:40:07;;;;;;;12.47;11.17;;;9.80;99.90;;;;;;5030041;28;20273;-42
2022/04/25 06:42:33;;;;;;;14.80;11.30;;;9.90;99.90;;;;;;5022581;28;20190;-43
2022/04/25 06:44:59;;;;;;;11.00;9.90;;;10.00;99.90;;;;;;5028978;28;20447;-43
2022/04/25 06:47:24;;;;;;;10.63;9.63;;;9.80;99.90;;;;;;5028059;28;20222;-43
2022/04/25 06:49:51;;;;;;;12.57;10.60;;;10.00;99.90;;;;;;5039525;28;20191;-42
2022/04/25 06:52:17;;;;;;;9.27;8.37;;;10.00;99.90;;;;;;5030621;28;20179;-42
2022/04/25 06:54:43;;;;;;;9.00;8.10;;;10.20;99.90;;;;;;5030604;28;20966;-42
2022/04/25 06:57:09;;;;;;;9.70;8.70;;;10.20;99.90;;;;;;5025144;28;20698;-43
2022/04/25 06:59:34;;;;;;;8.93;8.03;;;10.00;99.90;;;;;;5029513;28;20720;-43
2022/04/25 07:02:00;;;;;;;9.77;8.67;;;10.10;99.90;;;;;;5029254;28;20191;-43
2022/04/25 07:04:26;;;;;;;8.90;8.00;;;10.00;99.90;;;;;;5027831;28;20205;-43
2022/04/25 07:06:52;;;;;;;9.50;8.60;;;10.10;99.90;;;;;;5029419;28;20622;-42
2022/04/25 07:09:17;;;;;;;9.40;8.50;;;10.20;99.90;;;;;;5045305;28;20190;-42
2022/04/25 07:11:44;;;;;;;9.90;8.87;;;10.10;99.90;;;;;;5031392;28;20286;-43
2022/04/25 07:14:12;;;;;;;9.33;8.43;;;10.10;99.90;;;;;;5029879;28;20233;-43
2022/04/25 07:16:39;;;;;;;9.90;8.90;;;10.20;99.90;;;;;;5029222;28;20433;-43
2022/04/25 07:19:06;;;;;;;10.77;8.37;;;10.20;99.90;;;;;;5029143;28;20448;-43
2022/04/25 07:29:48;;;;;;;8.83;7.93;;;10.30;99.90;;;;;;5028550;28;21400;-43
2022/04/25 07:32:18;;;;;;;9.03;8.13;;;10.30;99.90;;;;;;5028795;28;20459;-43
2022/04/25 07:34:46;;;;;;;9.03;8.10;;;10.40;99.90;;;;;;5030930;28;20837;-43
2022/04/25 07:37:12;;;;;;;9.73;8.70;;;10.50;99.90;;;;;;5031290;28;20798;-42
2022/04/25 07:39:38;;;;;;;9.53;8.60;;;10.30;99.90;;;;;;5028792;28;20437;-42
2022/04/25 07:42:04;;;;;;;9.53;8.63;;;10.20;99.90;;;;;;5022054;28;20799;-42
2022/04/25 07:44:31;;;;;;;10.37;8.73;;;10.20;99.90;;;;;;5010963;28;20441;-42
2022/04/25 07:46:57;;;;;;;10.70;8.57;;;10.00;99.90;;;;;;5028779;28;20492;-43
2022/04/25 07:49:22;;;;;;;9.57;8.57;;;10.20;99.90;;;;;;5032669;28;20782;-42
2022/04/25 07:51:48;;;;;;;11.17;8.57;;;10.20;99.90;;;;;;5037794;28;20190;-42
2022/04/25 07:54:15;;;;;;;9.93;8.80;;;10.30;99.90;;;;;;5034961;28;20224;-42
2022/04/25 07:56:42;;;;;;;9.07;8.17;;;10.20;99.90;;;;;;5044877;28;20928;-42
2022/04/25 07:59:08;;;;;;;11.23;10.10;;;10.50;99.90;;;;;;5028285;28;20575;-42
2022/04/25 08:01:34;;;;;;;11.20;9.73;;;10.30;99.90;;;;;;5032264;28;20443;-42
2022/04/25 08:04:00;;;;;;;9.23;8.33;;;10.30;99.90;;;;;;5032880;28;20936;-42
2022/04/25 08:06:26;;;;;;;10.83;9.60;;;10.50;99.90;;;;;;5019255;28;20629;-43
2022/04/25 08:08:53;;;;;;;11.00;10.00;;;10.40;99.90;;;;;;5052782;28;20510;-42
2022/04/25 08:11:20;;;;;;;11.33;10.13;;;10.30;99.90;;;;;;5051675;28;20421;-43
2022/04/25 08:19:15;;;;;;;12.33;10.37;;;10.20;99.90;;;;;;5032561;28;20435;-42
2022/04/25 08:21:45;;;;;;;11.20;10.10;;;10.30;99.90;;;;;;5031650;28;20425;-43
2022/04/25 08:24:12;;;;;;;10.87;9.70;;;10.60;99.90;;;;;;5037881;28;20416;-43
2022/04/25 08:26:38;;;;;;;11.70;10.60;;;10.30;99.90;;;;;;5047828;28;20456;-43
2022/04/25 08:29:04;;;;;;;11.67;9.90;;;10.20;99.90;;;;;;5023191;28;20531;-43
2022/04/25 08:31:31;;;;;;;10.30;9.33;;;10.20;99.90;;;;;;5031541;28;20790;-43
2022/04/25 08:33:57;;;;;;;12.13;10.67;;;10.30;99.90;;;;;;5032175;28;20595;-42
2022/04/25 08:36:23;;;;;;;11.17;10.07;;;10.30;99.90;;;;;;5032007;28;20544;-43
2022/04/25 08:38:49;;;;;;;11.23;10.20;;;10.30;99.90;;;;;;5032177;28;20198;-42
2022/04/25 08:41:17;;;;;;;11.30;9.40;;;10.40;99.90;;;;;;5031623;28;20425;-42
2022/04/25 08:43:43;;;;;;;11.57;10.37;;;10.40;99.90;;;;;;5021023;28;20444;-43
2022/04/25 08:46:11;;;;;;;10.03;8.97;;;10.60;99.90;;;;;;5030675;28;20583;-42
2022/04/25 08:48:38;;;;;;;10.93;8.57;;;10.50;99.90;;;;;;5031617;28;20886;-43
2022/04/25 08:51:08;;;;;;;10.87;9.63;;;10.50;99.90;;;;;;5031612;28;20507;-42
2022/04/25 08:53:35;;;;;;;13.27;11.87;;;10.50;99.90;;;;;;5031887;28;20425;-43
2022/04/25 08:56:03;;;;;;;11.17;10.07;;;10.60;99.90;;;;;;5031948;28;20432;-43
2022/04/25 08:58:33;;;;;;;11.93;10.37;;;10.60;99.90;;;;;;5022370;28;20548;-43
2022/04/25 09:00:59;;;;;;;11.13;10.00;;;10.60;99.90;;;;;;5031069;28;20452;-43
2022/04/25 09:03:25;;;;;;;10.93;9.83;;;10.60;99.90;;;;;;5030165;28;20461;-43
2022/04/25 09:05:51;;;;;;;11.97;10.70;;;10.50;99.90;;;;;;5030357;28;20187;-42
2022/04/25 09:08:17;;;;;;;11.57;10.10;;;10.70;99.90;;;;;;5031771;28;20209;-42
2022/04/25 09:10:44;;;;;;;12.17;10.90;;;10.70;99.90;;;;;;5031153;28;20452;-42
2022/04/25 09:13:13;;;;;;;10.50;9.40;;;10.70;99.90;;;;;;5022041;28;20472;-43
2022/04/25 09:15:39;;;;;;;10.20;9.10;;;11.00;99.90;;;;;;5031347;28;20421;-42
2022/04/25 09:18:05;;;;;;;11.33;10.10;;;10.80;99.90;;;;;;5031448;28;20850;-42
2022/04/25 09:20:31;;;;;;;11.43;9.90;;;11.00;99.90;;;;;;5030853;28;20206;-42
2022/04/25 09:22:57;;;;;;;11.20;10.10;;;11.10;99.90;;;;;;5031673;28;20222;-43
2022/04/25 09:25:23;;;;;;;11.00;9.80;;;11.10;99.90;;;;;;5046276;28;20500;-42
2022/04/25 09:28:11;;;;;;;10.80;9.70;;;11.20;99.90;;;;;;5036552;28;20572;-43
2022/04/25 09:30:37;;;;;;;11.70;10.30;;;11.50;99.90;;;;;;5028371;28;20182;-43
2022/04/25 09:33:03;;;;;;;11.40;9.87;;;11.70;99.90;;;;;;5031361;28;20415;-43
2022/04/25 09:35:35;;;;;;;12.03;10.53;;;11.80;99.90;;;;;;5030932;28;20536;-42
2022/04/25 09:38:03;;;;;;;10.90;9.77;;;11.90;99.90;;;;;;5031272;28;20445;-43
2022/04/25 09:40:33;;;;;;;12.70;11.50;;;12.00;99.90;;;;;;5030285;28;20417;-43
2022/04/25 09:43:15;;;;;;;12.47;10.20;;;12.10;99.90;;;;;;5022893;28;20843;-43
2022/04/25 09:45:43;;;;;;;11.67;10.47;;;12.20;99.90;;;;;;5025108;28;20429;-43
2022/04/25 09:48:15;;;;;;;11.90;9.93;;;12.20;99.90;;;;;;5030912;28;20525;-42
2022/04/25 09:50:59;;;;;;;14.13;10.80;;;12.30;99.90;;;;;;5030194;28;20830;-43
2022/04/25 09:53:46;;;;;;;12.53;11.30;;;12.30;99.90;;;;;;5030752;28;20512;-43
2022/04/25 09:56:20;;;;;;;11.50;10.30;;;12.40;99.90;;;;;;5030678;28;20413;-42
2022/04/25 09:59:07;;;;;;;11.10;9.83;;;12.20;99.90;;;;;;5020239;28;20473;-43
2022/04/25 10:01:39;;;;;;;11.80;10.60;;;12.20;99.90;;;;;;5028851;28;20460;-43
2022/04/25 10:04:34;;;;;;;13.37;10.93;;;12.20;99.90;;;;;;5029424;28;20428;-43
2022/04/25 10:07:01;;;;;;;13.60;11.70;;;12.30;99.90;;;;;;5029612;28;20526;-43
2022/04/25 10:09:32;;;;;;;12.33;11.03;;;12.30;99.90;;;;;;5030525;28;20441;-43
2022/04/25 10:12:00;;;;;;;12.53;11.23;;;12.40;99.90;;;;;;5029412;28;20422;-43
2022/04/25 10:14:27;;;;;;;11.90;10.70;;;12.70;99.90;;;;;;5018690;28;21270;-43
2022/04/25 10:16:56;;;;;;;10.17;9.23;;;12.90;99.90;;;;;;5030215;28;20440;-43
2022/04/25 10:19:27;;;;;;;11.67;10.40;;;13.10;99.90;;;;;;5030352;28;20429;-43
2022/04/25 10:21:54;;;;;;;13.57;10.67;;;13.20;99.90;;;;;;5028062;28;20449;-43
2022/04/25 10:24:21;;;;;;;10.90;9.73;;;13.20;99.90;;;;;;5025699;28;20424;-43
2022/04/25 10:26:48;;;;;;;11.37;10.20;;;13.10;99.90;;;;;;5049819;28;20894;-43
2022/04/25 10:29:21;;;;;;;11.43;10.33;;;13.00;99.90;;;;;;5026246;28;20448;-43
2022/04/25 10:31:49;;;;;;;12.93;10.73;;;12.90;99.90;;;;;;5029107;28;20767;-42
2022/04/25 10:34:16;;;;;;;11.43;10.30;;;12.80;99.90;;;;;;5030085;28;20429;-43
2022/04/25 10:36:45;;;;;;;10.83;9.67;;;12.80;99.90;;;;;;5029764;28;20919;-43
2022/04/25 10:39:32;;;;;;;11.67;10.47;;;12.80;99.90;;;;;;5029838;28;20432;-43
2022/04/25 10:44:46;;;;;;;10.73;9.63;;;12.90;99.90;;;;;;5020442;28;20905;-43
2022/04/25 10:47:21;;;;;;;10.80;9.70;;;12.90;99.90;;;;;;5029531;28;20456;-42
2022/04/25 10:50:02;;;;;;;10.50;9.53;;;12.90;99.90;;;;;;5029418;28;20421;-43
2022/04/25 10:52:34;;;;;;;10.70;9.30;;;13.00;99.90;;;;;;5029697;28;20459;-43
2022/04/25 10:55:14;;;;;;;10.97;9.63;;;13.10;99.90;;;;;;5029859;28;20420;-43
2022/04/25 10:58:02;;;;;;;11.67;10.57;;;13.20;99.90;;;;;;5028711;28;20440;-42
2022/04/25 11:00:45;;;;;;;11.57;10.47;;;13.30;99.90;;;;;;5021280;28;20424;-43
2022/04/25 11:03:14;;;;;;;10.40;9.40;;;13.30;99.90;;;;;;5029244;28;20440;-43
2022/04/25 11:05:48;;;;;;;11.03;10.00;;;13.20;99.90;;;;;;5028116;28;20457;-42
2022/04/25 11:08:20;;;;;;;10.73;9.70;;;13.10;99.90;;;;;;5028891;28;20555;-43
2022/04/25 11:10:49;;;;;;;10.53;9.53;;;13.10;99.90;;;;;;5043676;28;20459;-43
2022/04/25 11:13:19;;;;;;;10.23;9.20;;;13.10;99.90;;;;;;5038294;28;20455;-43
2022/04/25 11:15:49;;;;;;;9.40;8.50;;;13.10;99.90;;;;;;5027026;28;20978;-43
2022/04/25 11:18:30;;;;;;;8.60;7.70;;;13.20;99.90;;;;;;5029274;28;20429;-42
2022/04/25 11:21:05;;;;;;;10.70;8.83;;;13.20;99.90;;;;;;5028664;28;20436;-43
2022/04/25 11:23:33;;;;;;;9.87;8.87;;;13.10;99.90;;;;;;5029280;28;20455;-43
2022/04/25 11:25:59;;;;;;;10.07;8.77;;;13.00;99.90;;;;;;5016365;28;20507;-43
2022/04/25 11:28:26;;;;;;;9.37;8.47;;;13.00;99.90;;;;;;5023918;28;20425;-43
2022/04/25 11:31:13;;;;;;;9.50;8.60;;;12.90;99.90;;;;;;5025880;28;20421;-43
2022/04/25 11:33:47;;;;;;;9.90;8.90;;;12.90;99.90;;;;;;5025195;28;20739;-43
2022/04/25 11:36:13;;;;;;;10.30;9.30;;;12.90;99.90;;;;;;5037929;28;20504;-43
2022/04/25 11:41:25;;;;;;;10.53;9.43;;;12.90;99.90;;;;;;5028284;28;20429;-42
2022/04/25 11:43:51;;;;;;;10.23;9.23;;;12.90;99.90;;;;;;5020495;28;20520;-43
2022/04/25 11:46:17;;;;;;;9.70;8.80;;;12.90;99.90;;;;;;5027925;28;20563;-42
2022/04/25 11:48:51;;;;;;;10.80;9.70;;;13.00;99.90;;;;;;5029102;28;20179;-43
2022/04/25 11:51:30;;;;;;;12.07;10.87;;;12.80;99.90;;;;;;5027767;28;20435;-43
2022/04/25 11:53:59;;;;;;;11.07;9.97;;;12.80;99.90;;;;;;5028875;28;20494;-43
2022/04/25 11:56:26;;;;;;;12.30;11.13;;;12.80;99.90;;;;;;5029336;28;21116;-42
2022/04/25 11:58:53;;;;;;;13.77;12.20;;;12.80;99.90;;;;;;5020379;28;20454;-43
2022/04/25 12:01:41;;;;;;;14.47;13.17;;;12.80;99.90;;;;;;5027078;28;20882;-43
2022/04/25 12:04:16;;;;;;;17.17;13.77;;;12.80;99.90;;;;;;5028140;28;20441;-42
2022/04/25 12:06:50;;;;;;;15.50;12.70;;;12.70;99.90;;;;;;5028486;28;20474;-42
2022/04/25 12:15:49;;;;;;;13.40;12.10;;;12.60;99.90;;;;;;5014443;28;20488;-43
2022/04/25 12:17:52;;;;;;;18.70;14.40;;;12.50;99.90;;;;;;5025749;28;20523;-43
2022/04/25 12:20:29;;;;;;;17.57;14.40;;;12.50;99.90;;;;;;5028204;28;20437;-43
2022/04/25 12:22:57;;;;;;;15.30;13.70;;;12.50;99.90;;;;;;5028767;28;20460;-43
2022/04/25 12:25:25;;;;;;;16.23;14.60;;;12.50;99.90;;;;;;5028483;28;20936;-43
2022/04/25 12:28:05;;;;;;;15.37;13.70;;;12.40;99.90;;;;;;5028514;28;20472;-43
2022/04/25 12:30:44;;;;;;;17.00;14.30;;;12.50;99.90;;;;;;5014610;28;21054;-43
2022/04/25 12:33:14;;;;;;;16.97;14.50;;;12.50;99.90;;;;;;5028605;28;20512;-42
2022/04/25 12:35:43;;;;;;;17.47;15.67;;;12.50;99.90;;;;;;5032141;28;20487;-43
2022/04/25 12:38:08;;;;;;;17.30;14.40;;;12.50;99.90;;;;;;5032077;28;20467;-43
2022/04/25 12:40:57;;;;;;;16.73;14.93;;;12.50;99.90;;;;;;5018317;28;20421;-43
2022/04/25 12:43:39;;;;;;;17.70;15.53;;;12.60;99.90;;;;;;5030881;28;20938;-43
2022/04/25 12:46:08;;;;;;;20.00;15.30;;;12.60;99.90;;;;;;5027945;28;20455;-43
2022/04/25 12:49:00;;;;;;;16.60;14.87;;;12.60;99.90;;;;;;5032069;28;20421;-43
2022/04/25 12:51:31;;;;;;;15.07;13.47;;;12.60;99.90;;;;;;5031591;28;20421;-43
2022/04/25 12:53:57;;;;;;;14.03;12.57;;;12.50;99.90;;;;;;5030631;28;20417;-43
2022/04/25 12:56:27;;;;;;;11.70;10.60;;;12.40;99.90;;;;;;5031880;28;20822;-43
2022/04/25 12:58:54;;;;;;;11.60;10.40;;;12.40;99.90;;;;;;5026097;28;20576;-43
2022/04/25 13:01:35;;;;;;;11.83;10.73;;;12.40;99.90;;;;;;5023725;28;21200;-43
2022/04/25 13:04:06;;;;;;;8.60;7.80;;;12.40;99.90;;;;;;5031073;28;20536;-43
2022/04/25 13:06:32;;;;;;;9.50;8.60;;;12.40;99.90;;;;;;5018562;28;21111;-42
2022/04/25 13:08:58;;;;;;;8.60;7.77;;;12.40;99.90;;;;;;5031529;28;20429;-42
2022/04/25 13:11:25;;;;;;;9.20;8.30;;;12.50;99.90;;;;;;5030778;28;20538;-43
2022/04/25 13:13:51;;;;;;;10.90;9.80;;;12.60;99.90;;;;;;5030217;28;20209;-43
2022/04/25 13:16:17;;;;;;;12.10;10.53;;;12.60;99.90;;;;;;5024481;28;20425;-43
2022/04/25 13:18:43;;;;;;;13.53;12.20;;;12.60;99.90;;;;;;5030791;28;20194;-43
2022/04/25 13:21:12;;;;;;;15.23;13.60;;;12.80;99.90;;;;;;5030253;28;20421;-43
2022/04/25 13:23:38;;;;;;;16.17;14.50;;;12.90;99.90;;;;;;5031159;28;20428;-43